createdAt,value
2019-04-10T04:42:03.204Z,14.93
2019-04-10T05:11:27.218Z,16.20
2019-04-10T05:14:02.767Z,17.05
2019-04-10T05:16:33.066Z,16.82
2019-04-10T05:19:03.769Z,16.82
2019-04-10T05:21:35.029Z,14.98
2019-04-10T05:24:07.437Z,16.55
2019-04-10T05:26:37.431Z,18.30
2019-04-10T05:29:07.207Z,17.10
2019-04-10T05:31:38.806Z,17.75
2019-04-10T05:34:09.338Z,17.92
2019-04-10T05:36:46.988Z,16.80
2019-04-10T05:39:19.556Z,16.75
2019-04-10T05:41:52.453Z,19.17
2019-04-10T05:44:23.687Z,16.37
2019-04-10T05:47:59.076Z,18.32
2019-04-10T05:50:29.914Z,15.40
2019-04-10T05:53:00.420Z,18.48
2019-04-10T05:55:30.960Z,17.55
2019-04-10T05:58:01.667Z,17.50
2019-04-10T06:00:32.642Z,17.77
2019-04-10T06:03:03.940Z,18.55
2019-04-10T06:05:34.160Z,17.17
2019-04-10T06:08:04.299Z,18.25
2019-04-10T06:10:34.309Z,16.45
2019-04-10T06:13:04.721Z,32.88
2019-04-10T06:15:35.057Z,20.82
2019-04-10T06:18:05.245Z,22.58
2019-04-10T06:20:35.448Z,25.37
2019-04-10T06:23:05.436Z,30.10
2019-04-10T06:25:38.012Z,19.48
2019-04-10T06:28:07.349Z,22.02
2019-04-10T06:30:37.297Z,18.42
2019-04-10T06:33:07.550Z,15.68
2019-04-10T06:35:37.733Z,14.47
2019-04-10T06:38:08.139Z,15.75
2019-04-10T06:40:38.106Z,14.40
2019-04-10T06:43:08.604Z,16.02
2019-04-10T06:45:38.618Z,14.35
2019-04-10T06:48:10.928Z,14.43
2019-04-10T06:50:41.282Z,16.75
2019-04-10T06:53:11.431Z,13.45
2019-04-10T06:55:41.421Z,13.13
2019-04-10T06:58:12.386Z,16.30
2019-04-10T07:00:46.625Z,14.60
2019-04-10T07:03:14.872Z,14.28
2019-04-10T07:06:00.449Z,14.35
2019-04-10T07:08:19.499Z,14.00
2019-04-10T07:10:55.424Z,14.53
2019-04-10T07:13:19.754Z,15.25
2019-04-10T07:15:49.884Z,14.10
2019-04-10T07:18:29.998Z,13.38
2019-04-10T07:21:20.368Z,13.62
2019-04-10T07:23:50.344Z,13.72
2019-04-10T07:26:33.260Z,14.70
2019-04-10T07:28:53.371Z,12.80
2019-04-10T07:31:23.840Z,13.40
2019-04-10T07:33:54.857Z,11.83
2019-04-10T07:36:24.766Z,12.88
2019-04-10T07:38:57.287Z,13.75
2019-04-10T07:41:26.825Z,13.95
2019-04-10T07:43:58.009Z,13.43
2019-04-10T07:46:31.191Z,13.18
2019-04-10T07:49:00.708Z,12.95
2019-04-10T07:51:31.815Z,13.32
2019-04-10T07:54:01.961Z,13.13
2019-04-10T07:56:31.778Z,12.35
2019-04-10T07:59:02.701Z,14.80
2019-04-10T08:01:33.448Z,13.08
2019-04-10T08:04:04.182Z,9.80
2019-04-10T08:06:35.235Z,13.80
2019-04-10T08:09:08.361Z,12.40
2019-04-10T08:11:40.838Z,12.43
2019-04-10T08:14:10.887Z,13.83
2019-04-10T08:16:43.978Z,13.95
2019-04-10T08:19:32.807Z,10.65
2019-04-10T08:22:06.197Z,12.10
2019-04-10T08:24:38.455Z,10.90
2019-04-10T08:27:10.264Z,12.37
2019-04-10T08:29:42.758Z,12.33
2019-04-10T08:32:13.905Z,11.12
2019-04-10T08:34:46.445Z,11.48
2019-04-10T08:37:17.233Z,11.05
2019-04-10T08:39:49.157Z,28.83
2019-04-10T08:42:18.916Z,21.57
2019-04-10T08:44:49.024Z,15.38
2019-04-10T08:47:19.366Z,11.78
2019-04-10T08:49:50.799Z,10.35
2019-04-10T08:52:20.732Z,11.25
2019-04-10T08:54:53.204Z,10.38
2019-04-10T08:57:23.160Z,9.80
2019-04-10T08:59:54.108Z,10.70
2019-04-10T09:02:24.404Z,8.18
2019-04-10T09:04:57.345Z,9.15
2019-04-10T09:07:28.321Z,10.00
2019-04-10T09:09:58.324Z,9.93
2019-04-10T09:12:29.492Z,10.43
2019-04-10T09:14:59.644Z,11.90
2019-04-10T09:17:29.703Z,10.10
2019-04-10T09:20:00.577Z,10.90
2019-04-10T09:22:49.065Z,10.05
2019-04-10T09:25:02.859Z,8.95
2019-04-10T09:27:33.671Z,10.53
2019-04-10T09:30:04.627Z,10.08
2019-04-10T09:32:34.713Z,9.80
2019-04-10T09:35:04.711Z,9.80
2019-04-10T09:37:34.717Z,10.32
2019-04-10T09:40:05.622Z,9.30
2019-04-10T09:42:37.955Z,12.63
2019-04-10T09:45:11.444Z,10.55
2019-04-10T09:47:40.055Z,10.30
2019-04-10T09:50:10.516Z,11.75
2019-04-10T09:52:40.760Z,9.93
2019-04-10T09:55:12.300Z,10.80
2019-04-10T09:57:45.062Z,9.88
2019-04-10T10:00:15.669Z,10.65
2019-04-10T10:02:45.519Z,10.05
2019-04-10T10:05:21.265Z,9.93
2019-04-10T10:08:12.494Z,11.18
2019-04-10T10:12:09.514Z,9.10
